sensor_id;sensor_type;location;lat;lon;timestamp;pressure;altitude;pressure_sealevel;temperature;humidity
20752;BME280;10536;51.582;5.016;2022-07-23T00:04:50;101908.66;;;17.65;100.00
20752;BME280;10536;51.582;5.016;2022-07-23T00:09:51;101910.69;;;17.53;100.00
20752;BME280;10536;51.582;5.016;2022-07-23T00:14:51;101905.63;;;17.46;100.00
20752;BME280;10536;51.582;5.016;2022-07-23T00:19:51;101907.19;;;17.54;100.00
20752;BME280;10536;51.582;5.016;2022-07-23T00:24:53;101903.75;;;17.52;100.00
20752;BME280;10536;51.582;5.016;2022-07-23T00:29:53;101907.16;;;17.56;100.00
20752;BME280;10536;51.582;5.016;2022-07-23T00:34:54;101903.06;;;17.07;100.00
20752;BME280;10536;51.582;5.016;2022-07-23T00:39:54;101908.56;;;17.33;100.00
20752;BME280;10536;51.582;5.016;2022-07-23T00:44:54;101903.97;;;17.43;100.00
20752;BME280;10536;51.582;5.016;2022-07-23T00:49:55;101901.63;;;17.32;100.00
20752;BME280;10536;51.582;5.016;2022-07-23T00:54:55;101900.81;;;17.30;100.00
20752;BME280;10536;51.582;5.016;2022-07-23T00:59:55;101889.94;;;17.46;100.00
20752;BME280;10536;51.582;5.016;2022-07-23T01:04:58;101897.28;;;16.94;100.00
20752;BME280;10536;51.582;5.016;2022-07-23T01:09:59;101890.69;;;16.76;100.00
20752;BME280;10536;51.582;5.016;2022-07-23T01:15:00;101880.66;;;16.96;100.00
20752;BME280;10536;51.582;5.016;2022-07-23T01:20:00;101872.56;;;17.09;100.00
20752;BME280;10536;51.582;5.016;2022-07-23T01:25:01;101868.25;;;17.06;100.00
20752;BME280;10536;51.582;5.016;2022-07-23T01:30:01;101872.69;;;17.03;100.00
20752;BME280;10536;51.582;5.016;2022-07-23T01:35:01;101867.44;;;17.03;100.00
20752;BME280;10536;51.582;5.016;2022-07-23T01:40:02;101874.69;;;16.91;100.00
20752;BME280;10536;51.582;5.016;2022-07-23T01:45:03;101876.41;;;16.92;100.00
20752;BME280;10536;51.582;5.016;2022-07-23T01:50:04;101871.31;;;16.86;100.00
20752;BME280;10536;51.582;5.016;2022-07-23T01:55:04;101878.50;;;16.75;100.00
20752;BME280;10536;51.582;5.016;2022-07-23T02:00:06;101886.19;;;16.81;100.00
20752;BME280;10536;51.582;5.016;2022-07-23T02:05:06;101882.72;;;16.81;100.00
20752;BME280;10536;51.582;5.016;2022-07-23T02:10:07;101891.16;;;16.54;100.00
20752;BME280;10536;51.582;5.016;2022-07-23T02:15:07;101882.22;;;16.65;100.00
20752;BME280;10536;51.582;5.016;2022-07-23T02:20:08;101876.03;;;16.69;100.00
20752;BME280;10536;51.582;5.016;2022-07-23T02:25:09;101869.81;;;16.32;100.00
20752;BME280;10536;51.582;5.016;2022-07-23T02:30:09;101872.47;;;16.31;100.00
20752;BME280;10536;51.582;5.016;2022-07-23T02:35:10;101874.13;;;16.35;100.00
20752;BME280;10536;51.582;5.016;2022-07-23T02:40:10;101871.41;;;16.39;100.00
20752;BME280;10536;51.582;5.016;2022-07-23T02:45:11;101871.75;;;16.23;100.00
20752;BME280;10536;51.582;5.016;2022-07-23T02:50:12;101882.94;;;16.29;100.00
20752;BME280;10536;51.582;5.016;2022-07-23T02:55:12;101883.66;;;16.36;100.00
20752;BME280;10536;51.582;5.016;2022-07-23T03:00:12;101882.03;;;16.30;100.00
20752;BME280;10536;51.582;5.016;2022-07-23T03:05:13;101887.38;;;16.26;100.00
20752;BME280;10536;51.582;5.016;2022-07-23T03:10:13;101886.50;;;16.27;100.00
20752;BME280;10536;51.582;5.016;2022-07-23T03:15:13;101889.09;;;16.27;100.00
20752;BME280;10536;51.582;5.016;2022-07-23T03:20:13;101899.75;;;16.14;100.00
20752;BME280;10536;51.582;5.016;2022-07-23T03:25:14;101908.53;;;16.10;100.00
20752;BME280;10536;51.582;5.016;2022-07-23T03:30:14;101892.97;;;16.07;100.00
20752;BME280;10536;51.582;5.016;2022-07-23T03:35:14;101892.84;;;16.12;100.00
20752;BME280;10536;51.582;5.016;2022-07-23T03:40:15;101898.13;;;16.09;100.00
20752;BME280;10536;51.582;5.016;2022-07-23T03:45:15;101899.06;;;16.05;100.00
20752;BME280;10536;51.582;5.016;2022-07-23T03:50:15;101890.44;;;16.01;100.00
20752;BME280;10536;51.582;5.016;2022-07-23T03:55:15;101896.16;;;15.72;100.00
20752;BME280;10536;51.582;5.016;2022-07-23T04:00:16;101912.34;;;15.94;100.00
20752;BME280;10536;51.582;5.016;2022-07-23T04:05:16;101911.38;;;15.99;100.00
20752;BME280;10536;51.582;5.016;2022-07-23T04:10:16;101915.91;;;15.88;100.00
20752;BME280;10536;51.582;5.016;2022-07-23T04:15:17;101916.91;;;15.81;100.00
20752;BME280;10536;51.582;5.016;2022-07-23T04:20:17;101925.28;;;15.98;100.00
20752;BME280;10536;51.582;5.016;2022-07-23T04:25:17;101930.53;;;15.95;100.00
20752;BME280;10536;51.582;5.016;2022-07-23T04:30:18;101928.81;;;15.96;100.00
20752;BME280;10536;51.582;5.016;2022-07-23T04:35:18;101923.41;;;16.05;100.00
20752;BME280;10536;51.582;5.016;2022-07-23T04:40:18;101930.25;;;16.12;100.00
20752;BME280;10536;51.582;5.016;2022-07-23T04:45:19;101930.22;;;16.15;100.00
20752;BME280;10536;51.582;5.016;2022-07-23T04:50:19;101937.97;;;16.18;100.00
20752;BME280;10536;51.582;5.016;2022-07-23T04:55:21;101938.03;;;16.15;100.00
20752;BME280;10536;51.582;5.016;2022-07-23T05:00:21;101937.94;;;16.20;100.00
20752;BME280;10536;51.582;5.016;2022-07-23T05:05:25;101944.81;;;16.26;100.00
20752;BME280;10536;51.582;5.016;2022-07-23T05:10:25;101937.84;;;16.25;100.00
20752;BME280;10536;51.582;5.016;2022-07-23T05:15:25;101934.19;;;16.35;100.00
20752;BME280;10536;51.582;5.016;2022-07-23T05:20:26;101946.00;;;16.53;100.00
20752;BME280;10536;51.582;5.016;2022-07-23T05:25:26;101945.03;;;16.58;100.00
20752;BME280;10536;51.582;5.016;2022-07-23T05:30:29;101945.72;;;16.68;100.00
20752;BME280;10536;51.582;5.016;2022-07-23T05:35:30;101952.06;;;16.55;100.00
20752;BME280;10536;51.582;5.016;2022-07-23T05:40:30;101956.31;;;16.61;100.00
20752;BME280;10536;51.582;5.016;2022-07-23T05:45:30;101959.78;;;16.61;100.00
20752;BME280;10536;51.582;5.016;2022-07-23T05:50:31;101960.00;;;16.94;100.00
20752;BME280;10536;51.582;5.016;2022-07-23T05:55:31;101972.09;;;17.00;100.00
20752;BME280;10536;51.582;5.016;2022-07-23T06:00:31;101977.97;;;17.09;100.00
20752;BME280;10536;51.582;5.016;2022-07-23T06:05:32;101976.69;;;17.27;100.00
20752;BME280;10536;51.582;5.016;2022-07-23T06:10:32;101977.69;;;17.22;100.00
20752;BME280;10536;51.582;5.016;2022-07-23T06:15:38;101976.47;;;17.38;100.00
20752;BME280;10536;51.582;5.016;2022-07-23T06:20:38;101965.25;;;17.69;100.00
20752;BME280;10536;51.582;5.016;2022-07-23T06:25:39;101961.09;;;17.96;100.00
20752;BME280;10536;51.582;5.016;2022-07-23T06:30:42;101967.25;;;18.28;100.00
20752;BME280;10536;51.582;5.016;2022-07-23T06:35:42;101966.75;;;18.46;100.00
20752;BME280;10536;51.582;5.016;2022-07-23T06:40:43;101968.84;;;18.65;100.00
20752;BME280;10536;51.582;5.016;2022-07-23T06:45:44;101963.13;;;18.83;100.00
20752;BME280;10536;51.582;5.016;2022-07-23T06:50:45;101958.34;;;18.96;100.00
20752;BME280;10536;51.582;5.016;2022-07-23T06:55:45;101958.78;;;19.12;100.00
20752;BME280;10536;51.582;5.016;2022-07-23T07:00:45;101962.19;;;19.14;100.00
20752;BME280;10536;51.582;5.016;2022-07-23T07:05:45;101963.66;;;18.94;100.00
20752;BME280;10536;51.582;5.016;2022-07-23T07:10:46;101968.72;;;19.01;100.00
20752;BME280;10536;51.582;5.016;2022-07-23T07:15:46;101976.63;;;19.27;100.00
20752;BME280;10536;51.582;5.016;2022-07-23T07:20:46;101977.59;;;19.53;100.00
20752;BME280;10536;51.582;5.016;2022-07-23T07:25:47;101983.06;;;19.73;100.00
20752;BME280;10536;51.582;5.016;2022-07-23T07:30:47;101986.28;;;19.82;100.00
20752;BME280;10536;51.582;5.016;2022-07-23T07:35:47;101982.91;;;20.30;100.00
20752;BME280;10536;51.582;5.016;2022-07-23T07:40:48;101984.66;;;20.55;100.00
20752;BME280;10536;51.582;5.016;2022-07-23T07:45:48;101982.16;;;20.75;100.00
20752;BME280;10536;51.582;5.016;2022-07-23T07:50:48;101983.09;;;20.74;100.00
20752;BME280;10536;51.582;5.016;2022-07-23T07:55:49;101981.78;;;20.86;100.00
20752;BME280;10536;51.582;5.016;2022-07-23T08:00:49;101983.41;;;20.88;100.00
20752;BME280;10536;51.582;5.016;2022-07-23T08:05:49;101991.53;;;21.06;100.00
20752;BME280;10536;51.582;5.016;2022-07-23T08:10:50;101998.13;;;21.16;100.00
20752;BME280;10536;51.582;5.016;2022-07-23T08:15:50;101998.56;;;21.51;100.00
20752;BME280;10536;51.582;5.016;2022-07-23T08:20:53;101997.19;;;21.63;100.00
20752;BME280;10536;51.582;5.016;2022-07-23T08:25:53;102006.69;;;21.67;100.00
20752;BME280;10536;51.582;5.016;2022-07-23T08:30:53;102006.31;;;21.76;100.00
20752;BME280;10536;51.582;5.016;2022-07-23T08:35:53;102008.56;;;21.85;100.00
20752;BME280;10536;51.582;5.016;2022-07-23T08:40:54;102004.16;;;22.06;100.00
20752;BME280;10536;51.582;5.016;2022-07-23T08:45:56;102001.84;;;21.99;100.00
20752;BME280;10536;51.582;5.016;2022-07-23T08:50:58;101996.03;;;22.33;100.00
20752;BME280;10536;51.582;5.016;2022-07-23T08:56:00;102000.56;;;22.69;100.00
20752;BME280;10536;51.582;5.016;2022-07-23T09:01:03;102006.13;;;22.22;100.00
20752;BME280;10536;51.582;5.016;2022-07-23T09:06:04;101998.78;;;22.30;100.00
20752;BME280;10536;51.582;5.016;2022-07-23T09:11:06;101998.03;;;22.47;100.00
20752;BME280;10536;51.582;5.016;2022-07-23T09:16:30;102000.59;;;22.88;100.00
20752;BME280;10536;51.582;5.016;2022-07-23T09:21:30;102002.91;;;23.15;100.00
20752;BME280;10536;51.582;5.016;2022-07-23T09:26:35;102010.34;;;23.43;100.00
20752;BME280;10536;51.582;5.016;2022-07-23T09:31:43;102020.47;;;23.52;100.00
20752;BME280;10536;51.582;5.016;2022-07-23T09:36:44;102013.97;;;23.59;100.00
20752;BME280;10536;51.582;5.016;2022-07-23T09:41:45;102013.56;;;23.50;100.00
20752;BME280;10536;51.582;5.016;2022-07-23T09:46:47;102011.78;;;23.31;100.00
20752;BME280;10536;51.582;5.016;2022-07-23T09:51:54;102011.41;;;23.39;100.00
20752;BME280;10536;51.582;5.016;2022-07-23T09:56:56;102004.16;;;23.61;100.00
20752;BME280;10536;51.582;5.016;2022-07-23T10:01:57;102003.97;;;23.83;100.00
20752;BME280;10536;51.582;5.016;2022-07-23T10:07:01;102008.41;;;23.83;100.00
20752;BME280;10536;51.582;5.016;2022-07-23T10:12:02;102009.66;;;23.93;100.00
20752;BME280;10536;51.582;5.016;2022-07-23T10:17:21;102011.06;;;24.00;100.00
20752;BME280;10536;51.582;5.016;2022-07-23T10:22:26;102011.03;;;24.35;100.00
20752;BME280;10536;51.582;5.016;2022-07-23T10:27:39;102001.56;;;24.64;100.00
20752;BME280;10536;51.582;5.016;2022-07-23T10:38:19;102010.94;;;24.37;100.00
20752;BME280;10536;51.582;5.016;2022-07-23T10:43:20;101999.25;;;24.41;100.00
20752;BME280;10536;51.582;5.016;2022-07-23T10:48:24;101998.19;;;24.45;100.00
20752;BME280;10536;51.582;5.016;2022-07-23T10:53:28;102000.72;;;24.47;100.00
20752;BME280;10536;51.582;5.016;2022-07-23T10:58:45;101999.19;;;24.42;100.00
20752;BME280;10536;51.582;5.016;2022-07-23T11:03:55;102002.59;;;24.44;100.00
20752;BME280;10536;51.582;5.016;2022-07-23T11:14:15;101998.34;;;24.42;100.00
20752;BME280;10536;51.582;5.016;2022-07-23T11:19:15;101997.47;;;24.59;100.00
20752;BME280;10536;51.582;5.016;2022-07-23T11:24:16;101992.91;;;24.45;100.00
20752;BME280;10536;51.582;5.016;2022-07-23T11:34:40;101997.72;;;24.70;100.00
20752;BME280;10536;51.582;5.016;2022-07-23T11:39:41;101995.06;;;24.37;100.00
20752;BME280;10536;51.582;5.016;2022-07-23T11:44:41;101991.84;;;24.65;100.00
20752;BME280;10536;51.582;5.016;2022-07-23T11:49:53;101990.91;;;24.66;100.00
20752;BME280;10536;51.582;5.016;2022-07-23T11:55:02;101988.38;;;24.80;100.00
20752;BME280;10536;51.582;5.016;2022-07-23T12:00:05;101979.66;;;25.10;100.00
20752;BME280;10536;51.582;5.016;2022-07-23T12:05:06;101983.09;;;25.12;100.00
20752;BME280;10536;51.582;5.016;2022-07-23T12:15:11;101974.13;;;25.31;100.00
20752;BME280;10536;51.582;5.016;2022-07-23T12:20:14;101967.84;;;25.48;100.00
20752;BME280;10536;51.582;5.016;2022-07-23T12:25:15;101961.94;;;25.58;100.00
20752;BME280;10536;51.582;5.016;2022-07-23T12:30:20;101961.31;;;25.39;100.00
20752;BME280;10536;51.582;5.016;2022-07-23T12:35:22;101961.69;;;25.77;100.00
20752;BME280;10536;51.582;5.016;2022-07-23T12:40:24;101965.88;;;25.81;100.00
20752;BME280;10536;51.582;5.016;2022-07-23T12:45:25;101950.44;;;26.04;100.00
20752;BME280;10536;51.582;5.016;2022-07-23T12:55:33;101965.09;;;26.10;100.00
20752;BME280;10536;51.582;5.016;2022-07-23T13:06:12;101949.88;;;26.28;100.00
20752;BME280;10536;51.582;5.016;2022-07-23T13:11:12;101940.88;;;26.45;100.00
20752;BME280;10536;51.582;5.016;2022-07-23T13:16:12;101948.63;;;26.48;100.00
20752;BME280;10536;51.582;5.016;2022-07-23T13:21:13;101945.41;;;26.43;100.00
20752;BME280;10536;51.582;5.016;2022-07-23T13:26:13;101948.63;;;26.33;100.00
20752;BME280;10536;51.582;5.016;2022-07-23T13:31:13;101940.88;;;26.45;100.00
20752;BME280;10536;51.582;5.016;2022-07-23T13:36:14;101944.47;;;26.29;100.00
20752;BME280;10536;51.582;5.016;2022-07-23T13:41:15;101938.09;;;26.46;100.00
20752;BME280;10536;51.582;5.016;2022-07-23T13:46:16;101935.00;;;26.68;100.00
20752;BME280;10536;51.582;5.016;2022-07-23T13:51:16;101929.06;;;26.92;100.00
20752;BME280;10536;51.582;5.016;2022-07-23T13:56:18;101924.50;;;26.94;100.00
20752;BME280;10536;51.582;5.016;2022-07-23T14:01:19;101934.53;;;27.03;100.00
20752;BME280;10536;51.582;5.016;2022-07-23T14:06:24;101931.97;;;27.02;100.00
20752;BME280;10536;51.582;5.016;2022-07-23T14:11:24;101937.63;;;27.10;100.00
20752;BME280;10536;51.582;5.016;2022-07-23T14:16:24;101930.31;;;27.13;100.00
20752;BME280;10536;51.582;5.016;2022-07-23T14:21:24;101935.28;;;27.05;100.00
20752;BME280;10536;51.582;5.016;2022-07-23T14:26:25;101926.44;;;27.32;100.00
20752;BME280;10536;51.582;5.016;2022-07-23T14:31:25;101926.66;;;27.29;100.00
20752;BME280;10536;51.582;5.016;2022-07-23T14:36:26;101930.16;;;27.29;100.00
20752;BME280;10536;51.582;5.016;2022-07-23T14:41:26;101931.81;;;27.17;100.00
20752;BME280;10536;51.582;5.016;2022-07-23T14:46:26;101938.34;;;26.99;100.00
20752;BME280;10536;51.582;5.016;2022-07-23T14:51:27;101934.66;;;27.14;100.00
20752;BME280;10536;51.582;5.016;2022-07-23T14:56:27;101934.84;;;27.26;100.00
20752;BME280;10536;51.582;5.016;2022-07-23T15:01:31;101930.34;;;27.26;100.00
20752;BME280;10536;51.582;5.016;2022-07-23T15:06:34;101922.63;;;27.36;100.00
20752;BME280;10536;51.582;5.016;2022-07-23T15:11:34;101916.75;;;27.58;100.00
20752;BME280;10536;51.582;5.016;2022-07-23T15:16:36;101914.50;;;27.65;100.00
20752;BME280;10536;51.582;5.016;2022-07-23T15:21:37;101915.44;;;27.38;100.00
20752;BME280;10536;51.582;5.016;2022-07-23T15:26:37;101914.16;;;27.44;100.00
20752;BME280;10536;51.582;5.016;2022-07-23T15:31:38;101911.81;;;27.39;100.00
20752;BME280;10536;51.582;5.016;2022-07-23T15:36:39;101912.53;;;27.28;100.00
20752;BME280;10536;51.582;5.016;2022-07-23T15:41:44;101905.75;;;27.37;100.00
20752;BME280;10536;51.582;5.016;2022-07-23T15:46:48;101907.09;;;27.30;100.00
20752;BME280;10536;51.582;5.016;2022-07-23T15:51:50;101908.00;;;27.16;100.00
20752;BME280;10536;51.582;5.016;2022-07-23T15:56:51;101902.91;;;27.13;100.00
20752;BME280;10536;51.582;5.016;2022-07-23T16:01:51;101905.00;;;27.08;100.00
20752;BME280;10536;51.582;5.016;2022-07-23T16:06:52;101894.56;;;27.05;100.00
20752;BME280;10536;51.582;5.016;2022-07-23T16:11:52;101896.97;;;26.95;100.00
20752;BME280;10536;51.582;5.016;2022-07-23T16:16:57;101892.78;;;26.78;100.00
20752;BME280;10536;51.582;5.016;2022-07-23T16:21:58;101887.75;;;26.73;100.00
20752;BME280;10536;51.582;5.016;2022-07-23T16:26:58;101890.63;;;26.70;100.00
20752;BME280;10536;51.582;5.016;2022-07-23T16:31:58;101886.41;;;26.81;100.00
20752;BME280;10536;51.582;5.016;2022-07-23T16:36:59;101886.63;;;26.77;100.00
20752;BME280;10536;51.582;5.016;2022-07-23T16:41:59;101877.13;;;26.73;100.00
20752;BME280;10536;51.582;5.016;2022-07-23T16:47:00;101885.50;;;26.67;100.00
20752;BME280;10536;51.582;5.016;2022-07-23T16:52:01;101882.31;;;26.62;100.00
20752;BME280;10536;51.582;5.016;2022-07-23T16:57:01;101887.63;;;26.62;100.00
20752;BME280;10536;51.582;5.016;2022-07-23T17:02:01;101875.69;;;26.26;100.00
20752;BME280;10536;51.582;5.016;2022-07-23T17:07:02;101876.94;;;26.20;100.00
20752;BME280;10536;51.582;5.016;2022-07-23T17:12:04;101879.78;;;26.03;100.00
20752;BME280;10536;51.582;5.016;2022-07-23T17:29:08;101887.78;;;25.73;100.00
20752;BME280;10536;51.582;5.016;2022-07-23T17:34:09;101895.41;;;25.49;100.00
20752;BME280;10536;51.582;5.016;2022-07-23T17:39:31;101897.59;;;25.56;100.00
20752;BME280;10536;51.582;5.016;2022-07-23T17:44:31;101894.38;;;25.51;100.00
20752;BME280;10536;51.582;5.016;2022-07-23T17:49:32;101898.50;;;25.41;100.00
20752;BME280;10536;51.582;5.016;2022-07-23T17:54:32;101896.66;;;25.27;100.00
20752;BME280;10536;51.582;5.016;2022-07-23T17:59:36;101903.66;;;25.12;100.00
20752;BME280;10536;51.582;5.016;2022-07-23T18:04:54;101895.13;;;25.07;100.00
20752;BME280;10536;51.582;5.016;2022-07-23T18:09:54;101887.72;;;24.98;100.00
20752;BME280;10536;51.582;5.016;2022-07-23T18:14:55;101884.88;;;25.01;100.00
20752;BME280;10536;51.582;5.016;2022-07-23T18:19:55;101900.97;;;24.98;100.00
20752;BME280;10536;51.582;5.016;2022-07-23T18:24:56;101903.41;;;25.01;100.00
20752;BME280;10536;51.582;5.016;2022-07-23T18:29:56;101895.75;;;24.96;100.00
20752;BME280;10536;51.582;5.016;2022-07-23T18:34:57;101890.19;;;24.85;100.00
20752;BME280;10536;51.582;5.016;2022-07-23T18:39:58;101895.66;;;24.82;100.00
20752;BME280;10536;51.582;5.016;2022-07-23T18:44:59;101903.44;;;24.69;100.00
20752;BME280;10536;51.582;5.016;2022-07-23T18:50:00;101907.00;;;24.52;100.00
20752;BME280;10536;51.582;5.016;2022-07-23T18:55:01;101901.81;;;24.33;100.00
20752;BME280;10536;51.582;5.016;2022-07-23T19:00:05;101905.78;;;24.42;100.00
20752;BME280;10536;51.582;5.016;2022-07-23T19:05:09;101900.91;;;24.34;100.00
20752;BME280;10536;51.582;5.016;2022-07-23T19:10:10;101902.81;;;24.15;100.00
20752;BME280;10536;51.582;5.016;2022-07-23T19:15:11;101899.75;;;24.07;100.00
20752;BME280;10536;51.582;5.016;2022-07-23T19:20:12;101908.28;;;23.94;100.00
20752;BME280;10536;51.582;5.016;2022-07-23T19:25:12;101897.75;;;23.77;100.00
20752;BME280;10536;51.582;5.016;2022-07-23T19:30:13;101916.53;;;23.71;100.00
20752;BME280;10536;51.582;5.016;2022-07-23T19:35:13;101918.00;;;23.59;100.00
20752;BME280;10536;51.582;5.016;2022-07-23T19:40:13;101914.38;;;23.44;100.00
20752;BME280;10536;51.582;5.016;2022-07-23T19:45:14;101919.00;;;23.39;100.00
20752;BME280;10536;51.582;5.016;2022-07-23T19:50:15;101924.97;;;23.25;100.00
20752;BME280;10536;51.582;5.016;2022-07-23T19:55:25;101930.63;;;23.17;100.00
20752;BME280;10536;51.582;5.016;2022-07-23T20:00:25;101937.50;;;23.02;100.00
20752;BME280;10536;51.582;5.016;2022-07-23T20:05:29;101933.28;;;22.79;100.00
20752;BME280;10536;51.582;5.016;2022-07-23T20:10:30;101938.22;;;22.68;100.00
20752;BME280;10536;51.582;5.016;2022-07-23T20:15:30;101944.84;;;22.58;100.00
20752;BME280;10536;51.582;5.016;2022-07-23T20:20:31;101947.88;;;22.48;100.00
20752;BME280;10536;51.582;5.016;2022-07-23T20:25:32;101947.38;;;22.40;100.00
20752;BME280;10536;51.582;5.016;2022-07-23T20:30:32;101943.44;;;22.30;100.00
20752;BME280;10536;51.582;5.016;2022-07-23T20:35:32;101940.09;;;22.26;100.00
20752;BME280;10536;51.582;5.016;2022-07-23T20:40:33;101946.75;;;22.15;100.00
20752;BME280;10536;51.582;5.016;2022-07-23T20:45:33;101936.72;;;22.02;100.00
20752;BME280;10536;51.582;5.016;2022-07-23T20:50:33;101937.81;;;21.97;100.00
20752;BME280;10536;51.582;5.016;2022-07-23T20:55:36;101942.91;;;21.81;100.00
20752;BME280;10536;51.582;5.016;2022-07-23T21:00:39;101936.31;;;21.71;100.00
20752;BME280;10536;51.582;5.016;2022-07-23T21:05:40;101936.75;;;21.60;100.00
20752;BME280;10536;51.582;5.016;2022-07-23T21:10:41;101930.38;;;21.45;100.00
20752;BME280;10536;51.582;5.016;2022-07-23T21:15:41;101931.47;;;21.17;100.00
20752;BME280;10536;51.582;5.016;2022-07-23T21:20:41;101941.41;;;20.87;100.00
20752;BME280;10536;51.582;5.016;2022-07-23T21:26:01;101945.66;;;20.89;100.00
20752;BME280;10536;51.582;5.016;2022-07-23T21:31:01;101937.69;;;20.93;100.00
20752;BME280;10536;51.582;5.016;2022-07-23T21:36:01;101936.72;;;20.71;100.00
20752;BME280;10536;51.582;5.016;2022-07-23T21:41:02;101946.63;;;20.65;100.00
20752;BME280;10536;51.582;5.016;2022-07-23T21:46:03;101936.81;;;20.45;100.00
20752;BME280;10536;51.582;5.016;2022-07-23T21:51:04;101937.22;;;20.34;100.00
20752;BME280;10536;51.582;5.016;2022-07-23T21:56:04;101932.06;;;20.31;100.00
20752;BME280;10536;51.582;5.016;2022-07-23T22:01:06;101937.91;;;20.39;100.00
20752;BME280;10536;51.582;5.016;2022-07-23T22:06:07;101930.81;;;20.18;100.00
20752;BME280;10536;51.582;5.016;2022-07-23T22:11:07;101928.19;;;20.18;100.00
20752;BME280;10536;51.582;5.016;2022-07-23T22:16:10;101924.94;;;20.09;100.00
20752;BME280;10536;51.582;5.016;2022-07-23T22:21:11;101928.81;;;19.99;100.00
20752;BME280;10536;51.582;5.016;2022-07-23T22:26:11;101933.22;;;19.99;100.00
20752;BME280;10536;51.582;5.016;2022-07-23T22:31:12;101931.56;;;19.96;100.00
20752;BME280;10536;51.582;5.016;2022-07-23T22:36:12;101930.00;;;19.90;100.00
20752;BME280;10536;51.582;5.016;2022-07-23T22:41:12;101927.50;;;20.11;100.00
20752;BME280;10536;51.582;5.016;2022-07-23T22:46:12;101929.13;;;19.90;100.00
20752;BME280;10536;51.582;5.016;2022-07-23T22:51:13;101937.00;;;19.90;100.00
20752;BME280;10536;51.582;5.016;2022-07-23T22:56:13;101927.31;;;19.92;100.00
20752;BME280;10536;51.582;5.016;2022-07-23T23:01:14;101939.53;;;19.93;100.00
20752;BME280;10536;51.582;5.016;2022-07-23T23:06:14;101932.88;;;19.83;100.00
20752;BME280;10536;51.582;5.016;2022-07-23T23:11:14;101927.03;;;19.75;100.00
20752;BME280;10536;51.582;5.016;2022-07-23T23:16:15;101933.66;;;19.58;100.00
20752;BME280;10536;51.582;5.016;2022-07-23T23:21:15;101930.09;;;19.61;100.00
20752;BME280;10536;51.582;5.016;2022-07-23T23:26:15;101933.31;;;19.42;100.00
20752;BME280;10536;51.582;5.016;2022-07-23T23:31:15;101925.28;;;19.47;100.00
20752;BME280;10536;51.582;5.016;2022-07-23T23:36:16;101929.72;;;19.45;100.00
20752;BME280;10536;51.582;5.016;2022-07-23T23:41:16;101927.25;;;19.40;100.00
20752;BME280;10536;51.582;5.016;2022-07-23T23:46:16;101932.59;;;19.37;100.00
20752;BME280;10536;51.582;5.016;2022-07-23T23:51:17;101929.25;;;19.33;100.00
20752;BME280;10536;51.582;5.016;2022-07-23T23:56:17;101924.28;;;19.24;100.00
